Latest Weather Observations for PORTABLE QFRI (Inglewood)

IDQ60801

Issued at 5:52 pm EST Wednesday 24 April 2019 (issued every 10 minutes, with the page automatically refreshed every 10 minutes)

About weather observations | Map of weather stations | Latest weather observations for QLD | Other Formats
Station Details ID: 250073 Name: PORTABLE QFRI (INGLEWOOD) Lat: -28.42 Lon: 151.10 Height: 286.0 m
Data from the previous 72 hours. | See also: Recent months for locations in Queensland
Date/Time
EST
Temp
°C
App
Temp
°C
Dew
Point
°C
Rel
Hum
%
Delta-T
°C
Wind Press
QNH
hPa
Press
MSL
hPa
Rain since
9am
mm
Dir  Spd
km/h
Gust
km/h
Spd
kts
Gust
kts
24/05:40pm 22.4 20.9 11.9 51 6.0 E 11 11 6 6 - - 0.0
24/05:30pm 22.6 21.5 12.1 51 6.0 E 9 11 5 6 - - 0.0
24/05:20pm 22.8 21.3 11.9 50 6.2 E 11 13 6 7 - - 0.0
24/05:10pm 23.1 21.6 11.9 49 6.4 E 11 13 6 7 - - 0.0
24/05:00pm 23.2 22.1 11.8 48 6.5 E 9 9 5 5 - - 0.0
24/04:50pm 23.4 22.6 11.7 47 6.7 ESE 7 9 4 5 - - 0.0
24/04:40pm 23.5 22.4 11.9 48 6.6 E 9 13 5 7 - - 0.0
24/04:30pm 23.6 22.9 11.9 47 6.7 ESE 7 11 4 6 - - 0.0
24/04:20pm 23.8 22.7 11.9 47 6.8 E 9 11 5 6 - - 0.0
24/04:10pm 23.8 22.3 12.0 47 6.8 E 11 13 6 7 - - 0.0
24/04:00pm 23.9 22.4 12.0 47 6.8 E 11 15 6 8 - - 0.0
24/03:50pm 23.9 22.4 11.9 47 6.9 ENE 11 15 6 8 - - 0.0
24/03:40pm 23.8 22.3 11.9 47 6.8 E 11 15 6 8 - - 0.0
24/03:30pm 23.7 22.6 12.1 48 6.7 ESE 9 11 5 6 - - 0.0
24/03:20pm 23.7 22.6 12.0 48 6.7 E 9 11 5 6 - - 0.0
24/03:10pm 23.6 21.8 12.1 48 6.6 E 13 15 7 8 - - 0.0
24/03:00pm 23.6 21.8 12.0 48 6.7 E 13 17 7 9 - - 0.0
24/02:50pm 23.5 21.7 12.1 48 6.6 E 13 17 7 9 - - 0.0
24/02:40pm 23.4 21.4 12.7 51 6.2 E 15 19 8 10 - - 0.0
24/02:30pm 23.6 22.2 12.1 48 6.6 ENE 11 15 6 8 - - 0.0
24/02:20pm 23.8 22.6 11.6 46 7.0 NE 9 11 5 6 - - 0.0
24/02:10pm 23.9 22.7 11.6 46 7.0 NE 9 15 5 8 - - 0.0
24/02:00pm 23.9 21.9 11.4 45 7.1 ENE 13 19 7 10 - - 0.0
24/01:50pm 24.0 21.2 11.3 45 7.2 ENE 17 19 9 10 - - 0.0
24/01:40pm 24.1 21.3 11.5 45 7.2 ENE 17 22 9 12 - - 0.0
24/01:30pm 24.3 22.7 11.4 44 7.4 NE 11 15 6 8 - - 0.0
24/01:20pm 24.2 22.6 11.4 44 7.3 NE 11 13 6 7 - - 0.0
24/01:10pm 24.3 22.2 11.2 43 7.4 NE 13 22 7 12 - - 0.0
24/01:00pm 24.1 21.4 11.7 45 7.1 ENE 17 22 9 12 - - 0.0
24/12:50pm 23.9 20.8 11.6 46 7.0 E 19 26 10 14 - - 0.0
24/12:40pm 23.8 20.9 12.2 48 6.7 E 19 20 10 11 - - 0.0
24/12:30pm 23.6 20.8 12.5 49 6.4 E 19 22 10 12 - - 0.0
24/12:20pm 23.5 20.6 12.4 49 6.4 E 19 20 10 11 - - 0.0
24/12:10pm 23.4 20.5 12.3 49 6.4 E 19 20 10 11 - - 0.0
24/12:00pm 23.5 20.4 12.2 49 6.5 E 20 22 11 12 - - 0.0
24/11:50am 23.4 21.2 12.1 49 6.5 E 15 19 8 10 - - 0.0
24/11:40am 23.1 20.0 12.3 50 6.2 ENE 20 22 11 12 - - 0.0
24/11:30am 23.1 19.6 12.3 50 6.2 E 22 26 12 14 - - 0.0
24/11:20am 23.0 19.9 12.3 51 6.2 E 20 24 11 13 - - 0.0
24/11:10am 22.9 19.8 12.3 51 6.1 ENE 20 22 11 12 - - 0.0
24/11:00am 22.8 19.9 12.4 52 6.0 E 19 24 10 13 - - 0.0
24/10:50am 22.7 19.8 12.4 52 5.9 E 19 24 10 13 - - 0.0
24/10:40am 22.4 19.0 12.4 53 5.7 E 22 26 12 14 - - 0.0
24/10:30am 22.2 19.3 12.3 53 5.7 E 19 22 10 12 - - 0.0
24/10:20am 21.8 19.3 12.2 54 5.5 E 17 19 9 10 - - 0.0
24/10:10am 21.3 20.0 12.5 57 5.0 E 11 13 6 7 - - 0.0
24/10:00am 21.0 19.7 12.5 58 4.9 ESE 11 15 6 8 - - 0.0
24/09:50am 20.8 18.7 12.4 58 4.8 ESE 15 19 8 10 - - 0.0
24/09:40am 20.6 18.9 12.5 59 4.6 ESE 13 17 7 9 - - 0.0
24/09:30am 20.5 18.8 12.5 60 4.6 ESE 13 17 7 9 - - 0.0
24/09:20am 20.4 18.7 12.4 60 4.6 ESE 13 19 7 10 - - 0.0
24/09:10am 20.2 17.7 12.3 60 4.5 E 17 19 9 10 - - 0.0
24/09:00am 20.1 17.2 12.4 61 4.4 E 19 20 10 11 - - 0.0
24/08:50am 19.9 17.8 12.3 61 4.3 E 15 17 8 9 - - 0.0
24/08:40am 19.5 17.7 12.1 62 4.2 E 13 17 7 9 - - 0.0
24/08:30am 19.2 17.7 12.0 63 4.0 E 11 13 6 7 - - 0.0
24/08:20am 18.8 17.7 11.9 64 3.9 ESE 9 13 5 7 - - 0.0
24/08:10am 18.2 17.7 12.0 67 3.5 ESE 6 7 3 4 - - 0.0
24/08:00am 17.9 17.3 11.8 67 3.4 ESE 6 7 3 4 - - 0.0
24/07:50am 17.6 17.0 11.6 68 3.3 ESE 6 7 3 4 - - 0.0
24/07:40am 17.3 16.7 11.6 69 3.1 ESE 6 7 3 4 - - 0.0
24/07:30am 16.8 16.0 11.6 71 2.9 ESE 7 7 4 4 - - 0.0
24/07:20am 16.5 16.0 12.1 75 2.4 E 6 6 3 3 - - 0.0
24/07:10am 16.7 16.2 12.1 74 2.6 E 6 7 3 4 - - 0.0
24/07:00am 16.6 16.0 11.6 72 2.8 ENE 6 7 3 4 - - 0.0
24/06:50am 16.4 15.9 12.2 76 2.3 N 6 7 3 4 - - 0.0
24/06:40am 16.6 15.8 11.8 73 2.7 SE 7 9 4 5 - - 0.0
24/06:30am 16.7 15.9 11.8 73 2.7 SE 7 7 4 4 - - 0.0
24/06:20am 16.4 16.0 12.3 77 2.3 ESE 6 7 3 4 - - 0.0
24/06:10am 16.1 15.6 12.2 77 2.2 ESE 6 7 3 4 - - 0.0
24/06:00am 15.9 14.8 12.1 78 2.1 E 9 11 5 6 - - 0.0
24/05:50am 15.2 15.2 12.4 83 1.6 ESE 4 7 2 4 - - 0.0
24/05:40am 15.1 15.5 12.4 84 1.5 E 2 4 1 2 - - 0.0
24/05:30am 15.3 15.6 12.2 82 1.7 SE 2 4 1 2 - - 0.0
24/05:20am 15.9 16.3 12.6 81 1.8 ESE 2 4 1 2 - - 0.0
24/05:10am 16.2 17.0 12.5 79 2.1 CALM 0 2 0 1 - - 0.0
24/05:00am 16.5 17.2 12.3 76 2.3 CALM 0 2 0 1 - - 0.0
24/04:50am 16.6 17.4 12.4 76 2.3 CALM 0 2 0 1 - - 0.0
24/04:40am 16.7 16.7 12.4 76 2.4 SSE 4 6 2 3 - - 0.0
24/04:30am 16.6 16.2 12.5 77 2.3 SE 6 7 3 4 - - 0.0
24/04:20am 16.3 16.4 12.7 79 2.0 SSE 4 6 2 3 - - 0.0
24/04:10am 16.4 16.8 12.4 77 2.2 S 2 4 1 2 - - 0.0
24/04:00am 16.1 16.8 12.3 78 2.1 CALM 0 0 0 0 - - 0.0
24/03:50am 15.8 16.5 12.3 80 1.9 CALM 0 4 0 2 - - 0.0
24/03:40am 15.6 15.6 12.3 81 1.8 ESE 4 4 2 2 - - 0.0
24/03:30am 15.6 15.6 12.3 81 1.8 E 4 6 2 3 - - 0.0
24/03:20am 15.6 15.9 12.1 80 1.9 ESE 2 4 1 2 - - 0.0
24/03:10am 15.5 16.2 12.3 81 1.8 CALM 0 2 0 1 - - 0.0
24/03:00am 15.6 15.8 12.0 79 2.0 E 2 4 1 2 - - 0.0
24/02:50am 15.7 16.4 12.2 80 1.9 CALM 0 2 0 1 - - 0.0
24/02:40am 15.8 16.5 12.1 78 2.0 CALM 0 2 0 1 - - 0.0
24/02:30am 15.7 16.0 12.2 80 1.9 SW 2 4 1 2 - - 0.0
24/02:20am 15.6 16.3 12.2 80 1.9 CALM 0 2 0 1 - - 0.0
24/02:10am 15.7 16.0 12.3 80 1.9 ESE 2 4 1 2 - - 0.0
24/02:00am 16.4 16.3 12.0 75 2.4 E 4 4 2 2 - - 0.0
24/01:50am 16.8 16.4 12.4 75 2.5 ESE 6 6 3 3 - - 0.0
24/01:40am 16.8 16.4 12.5 76 2.4 ESE 6 6 3 3 - - 0.0
24/01:30am 17.0 17.0 12.3 74 2.6 SE 4 4 2 2 - - 0.0
24/01:20am 17.2 17.2 12.3 73 2.7 ESE 4 4 2 2 - - 0.0
24/01:10am 17.3 17.3 12.4 73 2.7 ESE 4 6 2 3 - - 0.0
24/01:00am 17.5 17.4 12.2 71 3.0 ENE 4 6 2 3 - - 0.0
24/12:50am 17.7 17.6 12.1 69 3.1 NE 4 4 2 2 - - 0.0
24/12:40am 17.7 17.6 12.1 69 3.1 NE 4 6 2 3 - - 0.0
24/12:30am 17.8 17.7 12.1 69 3.2 NE 4 6 2 3 - - 0.0
24/12:20am 17.9 17.4 12.1 69 3.2 NE 6 7 3 4 - - 0.0
24/12:00am 17.1 16.0 12.1 72 2.8 E 9 11 5 6 - - 0.0
 
Date/Time
EST
Temp
°C
App
Temp
°C
Dew
Point
°C
Rel
Hum
%
Delta-T
°C
Wind Press
QNH
hPa
Press
MSL
hPa
Rain since
9am
mm
Dir  Spd
km/h
Gust
km/h
Spd
kts
Gust
kts
23/11:50pm 17.3 16.5 11.8 70 3.0 ENE 7 9 4 5 - - 0.0
23/11:40pm 17.1 15.5 11.6 70 3.0 ENE 11 11 6 6 - - 0.0
23/11:30pm 17.4 16.3 11.8 69 3.1 E 9 11 5 6 - - 0.0
23/11:20pm 17.7 16.9 11.8 68 3.3 ENE 7 7 4 4 - - 0.0
23/11:10pm 17.7 16.5 11.6 67 3.4 ENE 9 9 5 5 - - 0.0
23/11:00pm 18.2 17.4 11.8 66 3.6 ENE 7 9 4 5 - - 0.0
23/10:50pm 18.4 17.8 11.8 65 3.7 NE 6 7 3 4 - - 0.0
23/10:40pm 18.8 18.3 12.0 64 3.8 NE 6 7 3 4 - - 0.0
23/10:30pm 18.9 18.2 12.0 64 3.9 NE 7 9 4 5 - - 0.0
23/10:20pm 18.8 17.4 12.2 65 3.7 E 11 11 6 6 - - 0.0
23/10:10pm 19.2 17.8 12.1 63 4.0 ENE 11 13 6 7 - - 0.0
23/10:00pm 19.6 17.8 12.0 61 4.3 ENE 13 17 7 9 - - 0.0
23/09:50pm 19.9 17.7 12.0 60 4.5 ENE 15 19 8 10 - - 0.0
23/09:40pm 20.1 17.1 11.8 59 4.7 ENE 19 19 10 10 - - 0.0
23/09:30pm 20.3 17.2 11.5 57 4.9 ENE 19 20 10 11 - - 0.0
23/09:20pm 20.3 17.1 11.4 56 5.0 E 19 22 10 12 - - 0.0
23/09:10pm 20.3 17.5 11.2 56 5.1 E 17 19 9 10 - - 0.0
23/09:00pm 20.5 17.6 11.1 54 5.2 ENE 17 19 9 10 - - 0.0
23/08:50pm 20.7 17.8 10.9 53 5.4 ENE 17 19 9 10 - - 0.0
23/08:40pm 20.9 18.3 10.7 52 5.6 ENE 15 17 8 9 - - 0.0
23/08:30pm 21.1 18.9 10.8 51 5.7 ENE 13 17 7 9 - - 0.0
23/08:20pm 21.2 18.3 11.0 52 5.7 ENE 17 19 9 10 - - 0.0
23/08:10pm 21.5 19.0 11.1 51 5.8 ENE 15 19 8 10 - - 0.0
23/08:00pm 21.6 19.3 11.6 53 5.6 ENE 15 17 8 9 - - 0.0
23/07:50pm 21.9 18.8 11.6 52 5.8 E 19 22 10 12 - - 0.0
23/07:40pm 22.2 19.1 11.6 51 6.0 ENE 19 20 10 11 - - 0.0
23/07:30pm 22.5 19.4 11.5 49 6.2 ENE 19 20 10 11 - - 0.0
23/07:20pm 22.6 19.8 11.4 49 6.3 ENE 17 19 9 10 - - 0.0
23/07:10pm 22.7 19.5 11.3 48 6.4 ENE 19 20 10 11 - - 0.0
23/07:00pm 22.7 20.3 11.3 48 6.4 ENE 15 19 8 10 - - 0.0
23/06:50pm 22.9 20.0 11.1 47 6.6 E 17 20 9 11 - - 0.0
23/06:40pm 23.1 19.7 10.7 45 6.9 E 19 20 10 11 - - 0.0
23/06:30pm 23.2 20.0 10.1 43 7.3 E 17 22 9 12 - - 0.0
23/06:20pm 23.2 20.8 9.9 43 7.3 E 13 17 7 9 - - 0.0
23/06:10pm 23.3 21.3 10.2 43 7.3 E 11 13 6 7 - - 0.0
23/06:00pm 23.4 21.5 10.4 43 7.3 E 11 13 6 7 - - 0.0
23/05:50pm 23.5 21.5 10.2 43 7.4 E 11 15 6 8 - - 0.0
23/05:40pm 23.7 21.0 10.2 42 7.5 E 15 17 8 9 - - 0.0
23/05:30pm 24.0 21.3 10.3 42 7.7 E 15 17 8 9 - - 0.0
23/05:20pm 24.2 21.1 10.4 41 7.7 E 17 19 9 10 - - 0.0
23/05:10pm 24.4 21.0 10.4 41 7.9 E 19 20 10 11 - - 0.0
23/05:00pm 24.6 21.2 10.4 40 8.0 E 19 20 10 11 - - 0.0
23/04:50pm 24.7 21.0 10.1 39 8.2 E 20 24 11 13 - - 0.0
23/04:40pm 24.9 21.2 10.1 39 8.3 E 20 24 11 13 - - 0.0
23/04:30pm 25.1 21.0 10.0 38 8.4 E 22 24 12 13 - - 0.0
23/04:20pm 25.5 22.3 10.0 37 8.7 E 17 20 9 11 - - 0.0
23/04:10pm 25.7 22.2 10.3 38 8.7 E 19 22 10 12 - - 0.0
23/04:00pm 25.7 23.7 10.2 37 8.7 ENE 11 15 6 8 - - 0.0
23/03:50pm 25.7 24.6 10.7 39 8.5 NE 7 11 4 6 - - 0.0
23/03:40pm 25.7 24.6 10.7 39 8.5 NE 7 11 4 6 - - 0.0
23/03:30pm 25.7 24.2 10.6 38 8.6 NE 9 11 5 6 - - 0.0
23/03:20pm 25.8 24.4 10.8 39 8.5 NE 9 11 5 6 - - 0.0
23/03:10pm 25.8 24.3 10.6 38 8.6 NE 9 13 5 7 - - 0.0
23/03:00pm 25.9 24.4 10.5 38 8.7 NE 9 11 5 6 - - 0.0
23/02:50pm 26.0 24.1 10.6 38 8.7 NNE 11 15 6 8 - - 0.0
23/02:40pm 26.2 24.9 10.1 36 9.1 NNE 7 13 4 7 - - 0.0
23/02:30pm 26.3 24.2 9.9 35 9.2 NNE 11 13 6 7 - - 0.0
23/02:20pm 26.4 24.3 9.6 34 9.4 NNE 11 13 6 7 - - 0.0
23/02:10pm 26.5 24.3 9.5 34 9.5 NNE 11 13 6 7 - - 0.0
23/02:00pm 26.6 24.8 9.3 33 9.6 NNE 9 15 5 8 - - 0.0
23/01:50pm 26.7 24.1 9.3 33 9.7 NNE 13 17 7 9 - - 0.0
23/01:40pm 26.8 24.9 9.1 32 9.8 NNE 9 13 5 7 - - 0.0
23/01:30pm 26.9 24.9 8.6 31 10.1 NE 9 11 5 6 - - 0.0
23/01:20pm 26.9 23.8 7.2 28 10.6 E 13 15 7 8 - - 0.0
23/01:10pm 26.8 25.1 7.5 29 10.4 E 6 7 3 4 - - 0.0
23/01:00pm 26.5 23.6 8.2 31 10.0 ESE 13 17 7 9 - - 0.0
23/12:50pm 26.8 23.9 8.2 31 10.2 E 13 19 7 10 - - 0.0
23/12:40pm 26.8 24.3 8.1 30 10.2 ESE 11 17 6 9 - - 0.0
23/12:30pm 26.6 23.4 8.3 31 10.0 E 15 19 8 10 - - 0.0
23/12:20pm 26.2 23.0 8.5 32 9.7 E 15 26 8 14 - - 0.0
23/12:10pm 26.2 24.3 9.1 34 9.5 E 9 22 5 12 - - 0.0
23/12:00pm 26.2 22.8 9.1 34 9.5 E 17 20 9 11 - - 0.0
23/11:50am 25.7 22.3 9.3 35 9.1 E 17 20 9 11 - - 0.0
23/11:40am 25.3 22.8 9.7 37 8.7 E 13 20 7 11 - - 0.0
23/11:30am 25.1 22.0 10.2 39 8.4 E 17 19 9 10 - - 0.0
23/11:20am 24.9 21.3 10.5 40 8.1 E 20 24 11 13 - - 0.0
23/11:10am 24.7 22.2 11.0 42 7.8 E 15 19 8 10 - - 0.0
23/11:00am 24.7 20.9 11.1 42 7.7 E 22 24 12 13 - - 0.0
23/10:50am 24.3 20.9 11.1 43 7.5 E 20 24 11 13 - - 0.0
23/10:40am 24.0 20.2 11.3 45 7.2 E 22 26 12 14 - - 0.0
23/10:30am 23.8 19.7 11.4 45 7.1 E 24 26 13 14 - - 0.0
23/10:20am 23.7 20.0 11.6 46 6.9 E 22 26 12 14 - - 0.0
23/10:10am 23.3 19.7 12.0 49 6.5 E 22 28 12 15 - - 0.0
23/10:00am 23.3 19.4 12.2 49 6.4 E 24 30 13 16 - - 0.0
23/09:50am 23.2 20.3 12.4 50 6.2 ENE 19 24 10 13 - - 0.0
23/09:40am 22.6 18.8 12.5 53 5.8 E 24 28 13 15 - - 0.0
23/09:30am 22.3 18.5 12.5 53 5.6 E 24 28 13 15 - - 0.0
23/09:20am 22.2 19.1 12.1 52 5.8 E 20 24 11 13 - - 0.0
23/09:10am 22.1 18.5 11.7 51 5.9 E 22 24 12 13 - - 0.0
23/09:00am 22.0 17.9 11.5 51 5.9 E 24 30 13 16 - - 0.0
23/08:50am 21.7 17.6 11.3 51 5.8 E 24 28 13 15 - - 0.0
23/08:40am 21.4 17.6 11.2 52 5.7 E 22 26 12 14 - - 0.0
23/08:30am 21.2 18.4 11.4 53 5.5 E 17 20 9 11 - - 0.0
23/08:20am 20.8 19.2 11.7 56 5.1 ENE 11 15 6 8 - - 0.0
23/08:10am 20.3 19.7 12.4 60 4.5 E 7 9 4 5 - - 0.0
23/08:00am 19.9 20.0 12.8 63 4.1 E 4 7 2 4 - - 0.0
23/07:50am 18.6 18.8 13.0 70 3.2 E 4 6 2 3 - - 0.0
23/07:40am 17.5 18.1 13.0 75 2.6 ENE 2 4 1 2 - - 0.0
23/07:30am 16.8 17.7 13.0 78 2.1 CALM 0 0 0 0 - - 0.0
23/07:20am 16.2 17.1 12.8 80 1.9 CALM 0 2 0 1 - - 0.0
23/07:10am 15.8 16.2 12.5 81 1.8 NNE 2 4 1 2 - - 0.0
23/07:00am 15.7 16.5 12.7 82 1.7 CALM 0 0 0 0 - - 0.0
23/06:50am 15.7 16.5 12.6 82 1.7 CALM 0 0 0 0 - - 0.0
23/06:40am 15.9 16.4 12.8 82 1.7 E 2 4 1 2 - - 0.0
23/06:30am 15.8 16.3 12.8 82 1.7 NE 2 4 1 2 - - 0.0
23/06:20am 15.7 16.6 12.8 83 1.6 CALM 0 2 0 1 - - 0.0
23/06:10am 15.7 16.2 12.8 83 1.6 E 2 2 1 1 - - 0.0
23/06:00am 15.7 16.1 12.6 82 1.7 NE 2 4 1 2 - - 0.0
23/05:50am 16.2 16.6 12.4 78 2.1 NE 2 4 1 2 - - 0.0
23/05:40am 16.4 16.5 12.6 78 2.1 NE 4 6 2 3 - - 0.0
23/05:30am 16.3 16.0 12.7 79 2.0 ENE 6 6 3 3 - - 0.0
23/05:20am 16.3 16.4 12.7 79 2.0 ENE 4 6 2 3 - - 0.0
23/05:10am 16.6 16.7 12.7 78 2.2 NE 4 4 2 2 - - 0.0
23/05:00am 16.7 16.9 12.9 78 2.1 ENE 4 4 2 2 - - 0.0
23/04:50am 17.3 17.0 12.7 74 2.6 ENE 6 7 3 4 - - 0.0
23/04:40am 17.5 17.0 12.8 74 2.7 ENE 7 7 4 4 - - 0.0
23/04:30am 17.3 17.0 12.8 75 2.5 ENE 6 7 3 4 - - 0.0
23/04:20am 16.9 17.1 12.9 77 2.3 ENE 4 6 2 3 - - 0.0
23/04:10am 16.7 16.2 12.8 78 2.2 E 7 7 4 4 - - 0.0
23/04:00am 16.8 16.0 12.8 77 2.3 ENE 9 9 5 5 - - 0.0
23/03:50am 17.1 16.7 13.0 77 2.3 ENE 7 9 4 5 - - 0.0
23/03:40am 17.7 17.5 13.1 74 2.6 ENE 6 7 3 4 - - 0.0
23/03:30am 17.7 17.9 13.2 75 2.6 NE 4 4 2 2 - - 0.0
23/03:20am 17.7 17.9 13.2 75 2.6 ENE 4 4 2 2 - - 0.0
23/03:10am 17.7 17.5 13.1 74 2.6 E 6 6 3 3 - - 0.0
23/03:00am 17.6 17.5 13.4 76 2.4 E 6 7 3 4 - - 0.0
23/02:50am 17.9 17.6 13.2 74 2.7 ENE 7 7 4 4 - - 0.0
23/02:40am 18.3 18.2 13.3 72 2.9 ENE 6 7 3 4 - - 0.0
23/02:30am 18.5 18.4 13.3 71 3.0 NE 6 7 3 4 - - 0.0
23/02:20am 18.4 18.1 13.3 72 2.9 ENE 7 9 4 5 - - 0.0
23/02:10am 18.6 18.3 13.4 72 3.0 E 7 9 4 5 - - 0.0
23/02:00am 18.9 18.8 13.4 70 3.2 ENE 6 7 3 4 - - 0.0
23/01:50am 19.1 18.8 13.4 69 3.3 ENE 7 9 4 5 - - 0.0
23/01:40am 19.1 19.0 13.3 69 3.3 ENE 6 7 3 4 - - 0.0
23/01:30am 19.0 18.7 13.2 69 3.3 ENE 7 9 4 5 - - 0.0
23/01:20am 18.7 18.3 13.0 69 3.3 ENE 7 7 4 4 - - 0.0
23/01:10am 18.6 18.4 12.9 69 3.2 NE 6 7 3 4 - - 0.0
23/01:00am 18.6 18.4 12.9 69 3.2 NE 6 7 3 4 - - 0.0
23/12:50am 18.7 18.4 12.8 68 3.4 NE 6 7 3 4 - - 0.0
23/12:40am 18.6 18.3 12.7 68 3.3 NE 6 6 3 3 - - 0.0
23/12:30am 18.6 18.7 12.7 68 3.3 NE 4 6 2 3 - - 0.0
23/12:20am 18.8 18.9 12.6 67 3.5 NE 4 6 2 3 - - 0.0
23/12:10am 18.8 18.9 12.7 67 3.5 NE 4 6 2 3 - - 0.0
23/12:00am 18.9 19.0 12.6 67 3.6 NE 4 6 2 3 - - 0.0
 
Date/Time
EST
Temp
°C
App
Temp
°C
Dew
Point
°C
Rel
Hum
%
Delta-T
°C
Wind Press
QNH
hPa
Press
MSL
hPa
Rain since
9am
mm
Dir  Spd
km/h
Gust
km/h
Spd
kts
Gust
kts
22/11:50pm 18.9 18.6 12.6 67 3.6 NE 6 6 3 3 - - 0.0
22/11:40pm 18.9 18.5 12.5 66 3.6 NE 6 6 3 3 - - 0.0
22/11:30pm 18.7 18.7 12.3 66 3.6 NE 4 6 2 3 - - 0.0
22/11:20pm 18.5 18.5 12.4 67 3.4 ENE 4 4 2 2 - - 0.0
22/11:10pm 18.5 18.6 12.6 68 3.3 ENE 4 4 2 2 - - 0.0
22/11:00pm 18.8 18.9 12.7 67 3.5 NE 4 4 2 2 - - 0.0
22/10:50pm 19.1 19.6 12.7 66 3.6 ENE 2 4 1 2 - - 0.0
22/10:40pm 19.5 19.6 12.7 65 3.9 ENE 4 6 2 3 - - 0.0
22/10:30pm 19.9 19.6 12.7 63 4.1 ENE 6 7 3 4 - - 0.0
22/10:20pm 20.0 19.7 12.7 63 4.2 ENE 6 7 3 4 - - 0.0
22/10:10pm 20.0 19.5 12.8 63 4.1 ENE 7 9 4 5 - - 0.0
22/10:00pm 20.3 19.5 12.9 62 4.2 E 9 11 5 6 - - 0.0
22/09:50pm 20.5 19.3 12.8 61 4.4 ENE 11 13 6 7 - - 0.0
22/09:40pm 20.7 19.1 12.8 60 4.5 ENE 13 15 7 8 - - 0.0
22/09:30pm 20.8 18.8 12.8 60 4.6 ENE 15 19 8 10 - - 0.0
22/09:20pm 20.8 18.8 12.7 59 4.6 E 15 17 8 9 - - 0.0
22/09:10pm 20.9 19.2 12.6 59 4.8 E 13 15 7 8 - - 0.0
22/09:00pm 21.1 19.4 12.5 58 4.9 ENE 13 15 7 8 - - 0.0
22/08:50pm 21.2 19.9 12.5 57 5.0 ENE 11 13 6 7 - - 0.0
22/08:40pm 21.3 19.6 12.4 57 5.1 ENE 13 17 7 9 - - 0.0
22/08:30pm 21.5 19.8 12.4 56 5.2 ENE 13 15 7 8 - - 0.0
22/08:20pm 21.6 19.5 12.3 55 5.3 E 15 17 8 9 - - 0.0
22/08:00pm 21.8 19.2 12.0 53 5.6 E 17 20 9 11 - - 0.0
22/07:50pm 22.0 19.7 11.7 52 5.8 E 15 17 8 9 - - 0.0
22/07:40pm 22.4 19.7 11.6 50 6.1 E 17 19 9 10 - - 0.0
22/07:30pm 22.5 19.4 11.5 49 6.2 E 19 19 10 10 - - 0.0
22/07:20pm 22.6 19.8 11.3 48 6.4 E 17 20 9 11 - - 0.0
22/07:10pm 22.7 20.2 11.2 48 6.5 E 15 15 8 8 - - 0.0
22/07:00pm 23.0 20.1 11.1 47 6.7 E 17 20 9 11 - - 0.0
22/06:50pm 23.0 20.9 11.0 46 6.8 E 13 17 7 9 - - 0.0
22/06:40pm 23.2 20.6 10.7 45 7.0 E 15 15 8 8 - - 0.0
22/06:30pm 23.2 20.5 10.5 44 7.1 E 15 15 8 8 - - 0.0
22/06:20pm 23.3 21.0 10.5 44 7.2 E 13 15 7 8 - - 0.0
22/06:10pm 23.5 20.8 10.4 43 7.3 E 15 17 8 9 - - 0.0
22/06:00pm 23.4 21.1 10.4 43 7.3 E 13 15 7 8 - - 0.0
22/05:50pm 23.8 21.1 10.4 42 7.5 E 15 15 8 8 - - 0.0
22/05:40pm 24.1 21.4 10.4 42 7.7 E 15 17 8 9 - - 0.0
22/05:30pm 24.6 21.5 10.3 40 8.0 ENE 17 19 9 10 - - 0.0
22/05:20pm 24.8 21.7 10.3 40 8.1 ENE 17 19 9 10 - - 0.0
22/05:10pm 25.0 21.9 10.3 39 8.3 ENE 17 20 9 11 - - 0.0
22/05:00pm 25.2 22.1 10.3 39 8.4 ENE 17 22 9 12 - - 0.0
22/04:50pm 25.4 22.2 10.1 38 8.6 ENE 17 20 9 11 - - 0.0
22/04:40pm 25.6 22.4 9.9 37 8.8 ENE 17 20 9 11 - - 0.0
22/04:30pm 25.7 22.8 9.6 36 9.0 ENE 15 17 8 9 - - 0.0
22/04:20pm 26.0 23.4 9.4 35 9.2 NE 13 19 7 10 - - 0.0
22/04:00pm 26.3 23.6 9.0 33 9.6 ENE 13 17 7 9 - - 0.0
22/03:50pm 26.4 23.7 9.0 33 9.6 NE 13 15 7 8 - - 0.0
22/03:40pm 26.6 24.2 8.6 32 9.9 NE 11 13 6 7 - - 0.0
22/03:30pm 26.6 23.5 8.7 32 9.9 NE 15 17 8 9 - - 0.0
22/03:20pm 26.8 23.5 8.1 30 10.2 ENE 15 19 8 10 - - 0.0
22/03:10pm 27.1 23.6 7.4 28 10.6 ENE 15 20 8 11 - - 0.0
22/03:00pm 27.4 24.9 8.2 29 10.5 NE 11 13 6 7 - - 0.0
22/02:50pm 27.4 24.9 8.3 30 10.5 ENE 11 15 6 8 - - 0.0
22/02:40pm 27.4 24.9 8.0 29 10.6 ENE 11 15 6 8 - - 0.0
22/02:30pm 27.2 23.9 7.9 29 10.5 E 15 17 8 9 - - 0.0
22/02:20pm 27.3 24.8 8.0 29 10.5 ENE 11 13 6 7 - - 0.0
22/02:10pm 27.1 23.3 7.6 29 10.6 E 17 24 9 13 - - 0.0
22/02:00pm 26.9 23.5 7.5 29 10.5 E 15 22 8 12 - - 0.0
22/01:50pm 26.7 22.8 7.2 29 10.5 E 17 22 9 12 - - 0.0
22/01:40pm 26.7 23.1 6.7 28 10.6 ENE 15 20 8 11 - - 0.0
22/01:30pm 26.4 22.9 7.4 30 10.2 E 15 20 8 11 - - 0.0
22/01:20pm 26.5 22.1 6.7 28 10.5 ENE 19 22 10 12 - - 0.0
22/01:10pm 26.6 21.9 6.1 27 10.8 E 20 24 11 13 - - 0.0
22/01:00pm 26.7 22.6 6.2 27 10.8 ENE 17 20 9 11 - - 0.0
22/12:50pm 26.5 23.1 6.1 27 10.7 E 13 22 7 12 - - 0.0
22/12:40pm 26.2 22.5 6.5 28 10.4 E 15 19 8 10 - - 0.0
22/12:30pm 26.5 22.2 6.8 28 10.5 ENE 19 24 10 13 - - 0.0
22/12:20pm 26.3 22.8 7.3 30 10.2 E 15 20 8 11 - - 0.0
22/12:10pm 26.5 22.6 7.1 29 10.4 ENE 17 24 9 13 - - 0.0
22/12:00pm 26.2 22.8 7.6 30 10.0 ENE 15 22 8 12 - - 0.0
22/11:50am 26.0 22.9 7.4 30 10.0 NE 13 17 7 9 - - 0.0
22/11:40am 25.8 22.2 8.4 33 9.5 ENE 17 20 9 11 - - 0.0
22/11:30am 25.6 21.6 6.7 30 10.0 ENE 17 22 9 12 - - 0.0
22/11:20am 25.4 20.8 6.7 30 9.9 ENE 20 26 11 14 - - 0.0
22/11:10am 25.1 21.3 9.1 36 8.8 ENE 19 24 10 13 - - 0.0
22/11:00am 24.8 21.4 9.3 37 8.5 NE 17 24 9 13 - - 0.0
22/10:50am 25.3 21.6 9.4 36 8.8 ENE 19 26 10 14 - - 0.0
22/10:40am 24.7 21.1 9.9 39 8.2 NE 19 26 10 14 - - 0.0
22/10:30am 24.1 20.4 10.0 41 7.8 E 20 26 11 14 - - 0.0
22/10:20am 24.3 21.4 11.0 43 7.5 ENE 17 22 9 12 - - 0.0
22/10:10am 24.1 21.6 11.0 43 7.4 NE 15 20 8 11 - - 0.0
22/10:00am 23.2 20.7 11.0 46 6.9 ENE 15 22 8 12 - - 0.0
22/09:50am 22.5 20.6 11.9 51 6.0 E 13 15 7 8 - - 0.0
22/09:40am 21.9 19.6 11.9 53 5.7 E 15 17 8 9 - - 0.0
22/09:30am 21.5 19.3 12.1 55 5.4 ENE 15 19 8 10 - - 0.0
22/09:20am 21.3 19.1 12.1 55 5.2 ENE 15 17 8 9 - - 0.0
22/09:10am 21.0 18.9 12.3 57 5.0 ENE 15 17 8 9 - - 0.0
22/09:00am 20.7 18.2 12.2 58 4.8 ENE 17 20 9 11 - - 0.0
22/08:50am 20.4 18.3 12.3 59 4.6 ENE 15 20 8 11 - - 0.0
22/08:40am 19.9 18.9 12.3 61 4.3 ENE 9 13 5 7 - - 0.0
22/08:30am 19.2 18.7 12.0 63 4.0 NE 6 6 3 3 - - 0.0
22/08:20am 18.9 18.4 11.9 64 3.9 ENE 6 6 3 3 - - 0.0
22/08:10am 18.5 18.3 11.8 65 3.7 E 4 6 2 3 - - 0.0
22/08:00am 18.1 17.9 11.8 66 3.5 ESE 4 6 2 3 - - 0.0
22/07:50am 17.7 18.3 11.8 68 3.3 CALM 0 2 0 1 - - 0.0
22/07:40am 16.6 17.2 11.8 73 2.7 CALM 0 0 0 0 - - 0.0
22/07:30am 15.7 16.2 11.7 77 2.2 CALM 0 0 0 0 - - 0.0
22/07:20am 14.9 15.1 11.7 81 1.7 SW 2 4 1 2 - - 0.0
22/07:10am 14.2 14.3 11.4 83 1.5 WSW 2 4 1 2 - - 0.0
22/07:00am 13.6 13.1 10.9 84 1.4 W 4 4 2 2 - - 0.0
22/06:50am 13.1 12.9 10.4 84 1.4 WSW 2 4 1 2 - - 0.0
22/06:40am 12.9 12.7 10.3 84 1.4 WNW 2 4 1 2 - - 0.0
22/06:30am 13.0 12.4 10.3 84 1.4 NW 4 4 2 2 - - 0.0
22/06:20am 13.1 13.3 10.5 84 1.4 CALM 0 2 0 1 - - 0.0
22/06:10am 13.2 13.4 10.7 85 1.3 CALM 0 2 0 1 - - 0.0
22/06:00am 13.3 12.8 10.7 84 1.4 NW 4 4 2 2 - - 0.0
22/05:50am 13.4 13.8 11.1 86 1.2 CALM 0 2 0 1 - - 0.0
22/05:40am 13.5 13.8 11.0 85 1.3 CALM 0 2 0 1 - - 0.0
22/05:30am 13.5 13.8 11.0 85 1.3 CALM 0 0 0 0 - - 0.0
22/05:20am 13.6 13.9 10.9 84 1.4 CALM 0 0 0 0 - - 0.0
22/05:10am 13.6 13.9 10.9 84 1.4 CALM 0 0 0 0 - - 0.0
22/05:00am 13.7 13.9 10.6 81 1.6 CALM 0 2 0 1 - - 0.0
22/04:50am 13.9 13.8 10.9 82 1.6 NE 2 2 1 1 - - 0.0
22/04:40am 13.9 13.8 10.9 82 1.6 NE 2 2 1 1 - - 0.0
22/04:30am 14.2 14.6 11.1 81 1.7 CALM 0 0 0 0 - - 0.0
22/04:20am 14.5 15.0 11.6 83 1.6 CALM 0 0 0 0 - - 0.0
22/04:10am 14.7 15.1 11.4 80 1.8 CALM 0 0 0 0 - - 0.0
22/04:00am 15.0 15.4 11.4 79 2.0 CALM 0 0 0 0 - - 0.0
22/03:50am 15.6 15.9 11.0 74 2.5 CALM 0 0 0 0 - - 0.0
22/03:40am 15.6 16.0 11.1 74 2.4 CALM 0 0 0 0 - - 0.0
22/03:30am 15.5 15.9 11.2 75 2.3 CALM 0 2 0 1 - - 0.0
22/03:20am 15.6 15.6 11.2 75 2.4 WSW 2 2 1 1 - - 0.0
22/03:10am 15.9 15.9 11.0 72 2.7 NNE 2 6 1 3 - - 0.0
22/03:00am 16.0 15.2 11.0 72 2.7 ENE 6 9 3 5 - - 0.0
22/02:50am 15.4 14.4 11.1 75 2.3 E 7 9 4 5 - - 0.0
22/02:40am 15.9 14.6 11.2 73 2.6 E 9 9 5 5 - - 0.0
22/02:30am 16.6 15.3 11.2 70 2.9 ENE 9 9 5 5 - - 0.0
22/02:20am 16.9 16.0 11.3 69 3.1 ENE 7 9 4 5 - - 0.0
22/02:10am 16.7 15.8 11.3 70 3.0 ENE 7 9 4 5 - - 0.0
22/02:00am 16.5 15.2 11.3 71 2.8 E 9 11 5 6 - - 0.0
22/01:50am 17.0 15.4 11.4 69 3.1 E 11 13 6 7 - - 0.0
22/01:40am 17.4 15.4 11.4 68 3.3 ENE 13 13 7 7 - - 0.0
22/01:30am 17.3 15.3 11.5 68 3.2 ENE 13 15 7 8 - - 0.0
22/01:20am 17.7 16.5 11.5 67 3.4 ENE 9 11 5 6 - - 0.0
22/01:10am 17.9 16.6 11.4 65 3.6 ENE 9 11 5 6 - - 0.0
22/01:00am 17.9 16.6 11.4 65 3.6 ENE 9 11 5 6 - - 0.0
22/12:50am 18.0 16.3 11.3 65 3.7 ENE 11 15 6 8 - - 0.0
22/12:40am 18.1 16.8 11.3 64 3.8 ENE 9 11 5 6 - - 0.0
22/12:30am 18.2 16.9 11.1 63 3.9 ENE 9 11 5 6 - - 0.0
22/12:20am 18.2 17.2 11.1 63 3.9 ENE 7 11 4 6 - - 0.0
22/12:00am 18.3 17.4 11.2 63 3.9 ENE 7 9 4 5 - - 0.0
 
Date/Time
EST
Temp
°C
App
Temp
°C
Dew
Point
°C
Rel
Hum
%
Delta-T
°C
Wind Press
QNH
hPa
Press
MSL
hPa
Rain since
9am
mm
Dir  Spd
km/h
Gust
km/h
Spd
kts
Gust
kts
21/11:50pm 18.3 17.0 11.2 63 3.9 ENE 9 9 5 5 - - 0.0
21/11:40pm 18.2 16.9 11.4 64 3.8 ENE 9 9 5 5 - - 0.0
21/11:30pm 18.2 16.5 11.3 64 3.8 ENE 11 13 6 7 - - 0.0
21/11:20pm 18.3 16.7 11.4 64 3.8 ENE 11 13 6 7 - - 0.0
21/11:10pm 18.6 16.6 11.4 63 4.0 ENE 13 15 7 8 - - 0.0
21/11:00pm 18.7 16.6 11.3 62 4.1 ENE 13 17 7 9 - - 0.0
21/10:50pm 18.6 16.5 11.3 62 4.0 E 13 15 7 8 - - 0.0
21/10:40pm 18.8 17.1 11.3 61 4.2 ENE 11 13 6 7 - - 0.0
21/10:30pm 19.1 17.1 11.4 61 4.3 ENE 13 15 7 8 - - 0.0
21/10:20pm 19.3 17.3 11.5 60 4.3 ENE 13 15 7 8 - - 0.0
21/10:10pm 19.4 16.6 11.5 60 4.4 ENE 17 19 9 10 - - 0.0
21/10:00pm 19.6 16.9 11.7 60 4.4 ENE 17 20 9 11 - - 0.0
21/09:50pm 19.8 16.7 11.7 59 4.5 ENE 19 20 10 11 - - 0.0
21/09:40pm 19.9 16.8 11.7 59 4.6 ENE 19 19 10 10 - - 0.0
21/09:30pm 20.0 17.3 11.6 58 4.7 ENE 17 19 9 10 - - 0.0
21/09:20pm 20.2 17.1 11.6 57 4.8 ENE 19 20 10 11 - - 0.0
21/09:00pm 20.5 17.4 12.1 58 4.8 ENE 20 24 11 13 - - 0.0
21/08:50pm 20.7 17.2 12.1 58 4.9 ENE 22 26 12 14 - - 0.0
21/08:40pm 20.8 17.9 12.3 58 4.8 ENE 19 24 10 13 - - 0.0
21/08:30pm 20.9 18.0 12.4 58 4.9 ENE 19 20 10 11 - - 0.0
21/08:20pm 21.0 18.2 12.5 58 4.9 ENE 19 20 10 11 - - 0.0
21/08:10pm 21.2 18.2 12.5 57 5.0 ENE 20 24 11 13 - - 0.0
21/08:00pm 21.3 18.5 12.7 58 4.9 ENE 19 22 10 12 - - 0.0
21/07:50pm 21.4 18.7 12.9 58 4.9 ENE 19 20 10 11 - - 0.0
21/07:40pm 21.2 19.7 13.1 60 4.7 ENE 13 19 7 10 - - 0.0
21/07:30pm 21.4 19.3 13.6 61 4.6 E 17 19 9 10 - - 0.0
21/07:20pm 21.5 19.4 13.7 61 4.6 E 17 19 9 10 - - 0.0
21/07:10pm 21.6 19.2 13.7 60 4.6 E 19 20 10 11 - - 0.0
21/07:00pm 21.7 19.1 13.7 60 4.7 E 20 24 11 13 - - 0.0
21/06:50pm 21.9 18.9 13.7 59 4.8 E 22 26 12 14 - - 0.0
21/06:40pm 22.2 19.1 13.5 57 5.1 E 22 26 12 14 - - 0.0
21/06:30pm 22.7 19.6 13.4 55 5.4 ESE 22 26 12 14 - - 0.0
21/06:20pm 23.2 20.1 13.4 54 5.8 E 22 26 12 14 - - 0.0
21/06:10pm 23.5 20.6 13.0 51 6.1 E 20 26 11 14 - - 0.0
21/06:00pm 23.7 20.8 13.0 51 6.3 E 20 24 11 13 - - 0.0

Other formats

Comma delimited format used in spreadsheet applications
http://www.bom.gov.au/fwo/IDQ60801/IDQ60801.99122.axf

JavaScript Object Notation format (JSON) in row-major order
http://www.bom.gov.au/fwo/IDQ60801/IDQ60801.99122.json

Data quality

Most of these data are generated automatically and are frequently updated. Quality checks on data are not normally performed. It is possible for incorrect values to appear. Refer to information at About Latest Weather Observations and please check the disclaimer before using these data.